createdAt,value
2022-08-12T00:00:53.121Z,9.85
2022-08-12T00:03:38.850Z,10.05
2022-08-12T00:06:25.513Z,10.27
2022-08-12T00:09:11.311Z,10.10
2022-08-12T00:11:57.223Z,10.18
2022-08-12T00:14:42.755Z,10.32
2022-08-12T00:17:28.266Z,10.40
2022-08-12T00:20:13.848Z,10.55
2022-08-12T00:23:00.171Z,10.27
2022-08-12T00:26:20.978Z,11.13
2022-08-12T00:31:55.774Z,9.85
2022-08-12T00:34:41.061Z,10.25
2022-08-12T00:37:27.706Z,10.88
2022-08-12T00:40:14.576Z,11.02
2022-08-12T00:42:42.583Z,10.55
2022-08-12T00:45:10.367Z,10.95
2022-08-12T00:47:38.450Z,10.95
2022-08-12T00:50:06.749Z,11.93
2022-08-12T00:52:35.178Z,10.85
2022-08-12T00:55:04.272Z,11.55
2022-08-12T00:57:37.448Z,11.52
2022-08-12T01:00:14.688Z,11.75
2022-08-12T01:02:46.429Z,12.70
2022-08-12T01:05:34.995Z,11.80
2022-08-12T01:08:20.850Z,12.68
2022-08-12T01:11:06.979Z,11.98
2022-08-12T01:13:36.348Z,11.77
2022-08-12T01:16:05.817Z,11.77
2022-08-12T01:18:36.226Z,11.57
2022-08-12T01:21:27.756Z,11.80
2022-08-12T01:24:28.023Z,11.80
2022-08-12T01:26:59.851Z,11.93
2022-08-12T01:29:32.867Z,11.82
2022-08-12T01:32:05.523Z,11.23
2022-08-12T01:34:39.502Z,11.38
2022-08-12T01:37:09.086Z,11.55
2022-08-12T01:40:31.677Z,11.93
2022-08-12T01:42:43.398Z,11.95
2022-08-12T01:45:12.444Z,11.38
2022-08-12T01:47:54.578Z,11.30
2022-08-12T01:51:06.548Z,11.68
2022-08-12T01:53:51.697Z,11.05
2022-08-12T01:56:24.582Z,10.57
2022-08-12T01:59:15.762Z,11.05
2022-08-12T02:01:45.717Z,11.63
2022-08-12T02:04:43.327Z,10.38
2022-08-12T02:07:56.312Z,11.60
2022-08-12T02:10:49.121Z,10.93
2022-08-12T02:13:53.918Z,10.95
2022-08-12T02:16:39.116Z,11.10
2022-08-12T02:19:22.330Z,11.38
2022-08-12T02:22:30.579Z,11.45
2022-08-12T02:25:29.444Z,11.95
2022-08-12T02:27:56.935Z,11.80
2022-08-12T02:30:26.822Z,11.20
2022-08-12T02:33:09.613Z,11.80
2022-08-12T02:35:39.645Z,11.10
2022-08-12T02:38:09.330Z,11.63
2022-08-12T02:40:38.608Z,11.32
2022-08-12T02:43:27.379Z,11.45
2022-08-12T02:46:14.145Z,11.68
2022-08-12T02:48:53.635Z,10.13
2022-08-12T02:51:24.391Z,10.73
2022-08-12T02:54:03.352Z,10.50
2022-08-12T02:56:50.684Z,12.00
2022-08-12T02:59:21.392Z,10.88
2022-08-12T03:01:50.400Z,11.05
2022-08-12T03:04:44.074Z,10.90
2022-08-12T03:07:49.298Z,11.23
2022-08-12T03:10:36.948Z,11.45
2022-08-12T03:13:07.252Z,11.13
2022-08-12T03:15:35.798Z,10.88
2022-08-12T03:18:26.260Z,10.00
2022-08-12T03:20:57.124Z,10.13
2022-08-12T03:23:28.932Z,10.07
2022-08-12T03:26:02.475Z,10.52
2022-08-12T03:28:50.517Z,9.52
2022-08-12T03:31:20.923Z,9.98
2022-08-12T03:34:02.408Z,9.10
2022-08-12T03:36:35.674Z,8.85
2022-08-12T03:39:18.378Z,8.52
2022-08-12T03:42:07.664Z,8.05
2022-08-12T03:45:14.389Z,7.93
2022-08-12T03:48:33.070Z,7.97
2022-08-12T03:51:20.357Z,7.60
2022-08-12T03:54:06.985Z,7.80
2022-08-12T03:56:54.044Z,7.15
2022-08-12T03:59:39.304Z,7.45
2022-08-12T04:02:08.011Z,7.22
2022-08-12T04:04:35.899Z,6.90
2022-08-12T04:07:07.849Z,7.05
2022-08-12T04:09:35.482Z,7.20
2022-08-12T04:12:22.685Z,6.97
2022-08-12T04:14:57.036Z,6.72
2022-08-12T04:17:28.054Z,6.53
2022-08-12T04:19:56.607Z,6.90
2022-08-12T04:22:26.167Z,6.32
2022-08-12T04:24:54.287Z,7.05
2022-08-12T04:27:21.156Z,6.40
2022-08-12T04:30:16.686Z,7.07
2022-08-12T04:32:37.638Z,6.55
2022-08-12T04:35:07.478Z,6.28
2022-08-12T04:37:58.535Z,6.95
2022-08-12T04:40:28.089Z,6.72
2022-08-12T04:42:56.005Z,6.03
2022-08-12T04:45:22.958Z,6.47
2022-08-12T04:47:50.046Z,6.82
2022-08-12T04:50:33.825Z,6.38
2022-08-12T04:53:05.801Z,5.82
2022-08-12T04:55:33.585Z,5.70
2022-08-12T04:58:00.449Z,5.53
2022-08-12T05:00:27.766Z,6.22
2022-08-12T05:02:54.995Z,6.57
2022-08-12T05:05:23.652Z,7.93
2022-08-12T05:07:53.988Z,7.15
2022-08-12T05:10:33.089Z,7.35
2022-08-12T05:13:05.446Z,7.97
2022-08-12T05:15:32.318Z,7.10
2022-08-12T05:17:59.706Z,7.00
2022-08-12T05:20:29.482Z,7.00
2022-08-12T05:23:13.898Z,6.20
2022-08-12T05:25:43.372Z,6.90
2022-08-12T05:28:10.871Z,6.40
2022-08-12T05:30:37.665Z,6.85
2022-08-12T05:33:05.832Z,7.20
2022-08-12T05:35:42.925Z,7.10
2022-08-12T05:38:30.483Z,6.82
2022-08-12T05:40:58.154Z,6.70
2022-08-12T05:43:24.994Z,6.65
2022-08-12T05:45:51.934Z,6.68
2022-08-12T05:48:19.200Z,6.88
2022-08-12T05:50:46.676Z,6.80
2022-08-12T05:53:13.582Z,6.32
2022-08-12T05:55:40.649Z,7.22
2022-08-12T05:58:08.200Z,7.15
2022-08-12T06:00:35.849Z,6.78
2022-08-12T06:03:04.803Z,5.88
2022-08-12T06:05:52.715Z,6.20
2022-08-12T06:08:22.837Z,6.30
2022-08-12T06:10:50.531Z,6.13
2022-08-12T06:13:28.222Z,6.15
2022-08-12T06:18:29.936Z,6.10
2022-08-12T06:21:01.758Z,5.97
2022-08-12T06:23:29.797Z,5.95
2022-08-12T06:25:57.199Z,6.53
2022-08-12T06:28:24.112Z,5.97
2022-08-12T06:31:22.338Z,6.43
2022-08-12T06:33:55.827Z,6.70
2022-08-12T06:36:29.922Z,6.78
2022-08-12T06:38:59.603Z,6.20
2022-08-12T06:42:30.842Z,6.57
2022-08-12T06:44:32.641Z,6.40
2022-08-12T06:46:59.903Z,6.15
2022-08-12T06:49:28.448Z,5.97
2022-08-12T06:51:56.681Z,5.55
2022-08-12T06:54:31.057Z,6.00
2022-08-12T06:57:04.653Z,6.28
2022-08-12T06:59:32.515Z,5.70
2022-08-12T07:01:59.454Z,6.35
2022-08-12T07:04:36.222Z,6.20
2022-08-12T07:07:13.650Z,6.97
2022-08-12T07:10:04.156Z,6.95
2022-08-12T07:12:29.906Z,6.88
2022-08-12T07:14:58.323Z,6.55
2022-08-12T07:17:26.501Z,7.25
2022-08-12T07:19:55.511Z,6.65
2022-08-12T07:22:24.847Z,6.93
2022-08-12T07:25:11.542Z,7.53
2022-08-12T07:27:42.822Z,6.88
2022-08-12T07:30:10.517Z,7.05
2022-08-12T07:32:37.378Z,7.20
2022-08-12T07:35:04.698Z,7.22
2022-08-12T07:37:31.614Z,7.20
2022-08-12T07:39:59.538Z,7.65
2022-08-12T07:42:27.831Z,7.85
2022-08-12T07:44:56.061Z,7.10
2022-08-12T07:47:23.770Z,7.78
2022-08-12T07:50:04.878Z,7.95
2022-08-12T07:52:38.597Z,7.50
2022-08-12T07:55:06.242Z,7.35
2022-08-12T07:57:35.915Z,7.53
2022-08-12T08:00:05.367Z,7.68
2022-08-12T08:02:37.195Z,7.15
2022-08-12T08:05:05.047Z,6.78
2022-08-12T08:07:31.932Z,7.10
2022-08-12T08:10:00.604Z,6.78
2022-08-12T08:12:47.562Z,6.60
2022-08-12T08:15:15.770Z,7.25
2022-08-12T08:17:57.833Z,6.75
2022-08-12T08:20:28.791Z,6.53
2022-08-12T08:22:59.988Z,6.60
2022-08-12T08:25:35.984Z,5.83
2022-08-12T08:28:12.936Z,6.28
2022-08-12T08:30:43.941Z,6.22
2022-08-12T08:33:23.580Z,6.77
2022-08-12T08:36:00.657Z,6.75
2022-08-12T08:38:33.332Z,6.60
2022-08-12T08:42:15.682Z,6.95
2022-08-12T08:44:11.307Z,7.03
2022-08-12T08:46:39.781Z,7.65
2022-08-12T08:49:07.055Z,7.15
2022-08-12T08:51:33.963Z,6.97
2022-08-12T08:54:00.939Z,7.63
2022-08-12T08:56:30.944Z,6.97
2022-08-12T08:58:58.014Z,6.85
2022-08-12T09:01:26.468Z,7.95
2022-08-12T09:05:07.832Z,7.10
2022-08-12T09:10:02.300Z,7.85
2022-08-12T09:12:55.095Z,7.65
2022-08-12T09:15:35.338Z,7.78
2022-08-12T09:18:08.459Z,7.47
2022-08-12T09:20:53.169Z,7.13
2022-08-12T09:24:00.216Z,7.63
2022-08-12T09:28:57.247Z,7.60
2022-08-12T09:32:03.780Z,7.40
2022-08-12T09:34:26.572Z,8.98
2022-08-12T09:37:02.582Z,7.18
2022-08-12T09:40:03.158Z,7.15
2022-08-12T09:43:11.086Z,6.53
2022-08-12T09:46:11.126Z,7.55
2022-08-12T09:48:24.565Z,6.93
2022-08-12T09:50:55.086Z,7.72
2022-08-12T09:53:29.241Z,7.13
2022-08-12T09:56:33.366Z,7.00
2022-08-12T09:58:59.696Z,7.05
2022-08-12T10:01:35.392Z,6.57
2022-08-12T10:04:19.787Z,5.93
2022-08-12T10:06:55.316Z,6.68
2022-08-12T10:09:56.944Z,6.40
2022-08-12T10:12:32.736Z,7.40
2022-08-12T10:15:00.180Z,6.72
2022-08-12T10:17:27.054Z,6.97
2022-08-12T10:19:53.842Z,7.47
2022-08-12T10:22:49.138Z,7.63
2022-08-12T10:26:34.221Z,7.30
2022-08-12T10:28:36.199Z,7.45
2022-08-12T10:31:05.797Z,7.20
2022-08-12T10:33:55.684Z,7.10
2022-08-12T10:36:39.786Z,7.10
2022-08-12T10:40:00.013Z,7.03
2022-08-12T10:42:15.309Z,7.35
2022-08-12T10:44:46.865Z,7.70
2022-08-12T10:48:01.587Z,8.25
2022-08-12T10:50:32.598Z,8.02
2022-08-12T10:52:54.322Z,8.05
2022-08-12T10:55:21.177Z,7.82
2022-08-12T10:58:14.859Z,8.38
2022-08-12T11:00:55.527Z,9.27
2022-08-12T11:04:18.743Z,8.55
2022-08-12T11:07:07.468Z,9.40
2022-08-12T11:09:02.121Z,9.60
2022-08-12T11:12:34.966Z,11.07
2022-08-12T11:14:49.516Z,10.75
2022-08-12T11:17:34.022Z,11.27
2022-08-12T11:20:05.351Z,11.23
2022-08-12T11:22:32.493Z,11.15
2022-08-12T11:24:59.431Z,11.52
2022-08-12T11:27:26.320Z,12.05
2022-08-12T11:30:02.529Z,11.52
2022-08-12T11:32:38.807Z,11.85
2022-08-12T11:35:06.927Z,11.30
2022-08-12T11:37:58.250Z,11.63
2022-08-12T11:40:22.962Z,11.07
2022-08-12T11:42:50.221Z,11.45
2022-08-12T11:45:19.674Z,10.50
2022-08-12T11:47:46.906Z,11.32
2022-08-12T11:50:19.108Z,11.43
2022-08-12T11:52:56.422Z,11.32
2022-08-12T11:55:25.322Z,11.20
2022-08-12T11:58:33.861Z,11.10
2022-08-12T12:03:43.885Z,11.20
2022-08-12T12:06:17.893Z,11.52
2022-08-12T12:08:52.781Z,11.73
2022-08-12T12:11:21.648Z,10.77
2022-08-12T12:14:08.843Z,11.55
2022-08-12T12:16:39.532Z,10.30
2022-08-12T12:19:06.948Z,11.13
2022-08-12T12:21:48.515Z,11.05
2022-08-12T12:27:00.745Z,10.07
2022-08-12T12:30:19.724Z,10.82
2022-08-12T12:32:29.062Z,11.15
2022-08-12T12:35:14.516Z,10.98
2022-08-12T12:38:04.190Z,11.05
2022-08-12T12:40:39.801Z,11.07
2022-08-12T12:43:07.633Z,12.25
2022-08-12T12:45:36.421Z,10.50
2022-08-12T12:48:06.151Z,10.85
2022-08-12T12:50:45.274Z,10.93
2022-08-12T12:54:07.771Z,10.95
2022-08-12T12:57:16.848Z,10.73
2022-08-12T13:00:08.385Z,10.32
2022-08-12T13:02:40.376Z,10.52
2022-08-12T13:05:13.699Z,9.73
2022-08-12T13:07:54.089Z,10.00
2022-08-12T13:10:24.075Z,9.63
2022-08-12T13:12:58.022Z,9.90
2022-08-12T13:15:24.867Z,10.23
2022-08-12T13:18:11.891Z,10.63
2022-08-12T13:20:43.021Z,10.88
2022-08-12T13:23:36.447Z,10.25
2022-08-12T13:25:59.169Z,10.63
2022-08-12T13:28:31.084Z,10.52
2022-08-12T13:30:59.507Z,11.35
2022-08-12T13:34:33.620Z,10.93
2022-08-12T13:36:20.420Z,11.07
2022-08-12T13:38:54.382Z,11.23
2022-08-12T13:41:33.733Z,10.38
2022-08-12T13:44:02.167Z,11.63
2022-08-12T13:46:28.982Z,10.25
2022-08-12T13:48:56.663Z,10.65
2022-08-12T13:51:24.801Z,10.90
2022-08-12T13:54:11.607Z,9.55
2022-08-12T13:56:40.851Z,10.40
2022-08-12T13:59:08.646Z,9.88
2022-08-12T14:01:41.045Z,10.63
2022-08-12T14:04:12.389Z,9.57
2022-08-12T14:06:40.841Z,9.98
2022-08-12T14:09:17.307Z,9.93
2022-08-12T14:11:54.809Z,10.23
2022-08-12T14:14:31.525Z,10.00
2022-08-12T14:17:10.326Z,9.88
2022-08-12T14:19:48.249Z,10.55
2022-08-12T14:22:21.126Z,9.52
2022-08-12T14:24:53.271Z,9.68
2022-08-12T14:28:04.489Z,10.13
2022-08-12T14:30:15.725Z,10.00
2022-08-12T14:32:45.309Z,9.68
2022-08-12T14:35:12.643Z,9.48
2022-08-12T14:37:56.781Z,9.02
2022-08-12T14:40:28.696Z,9.73
2022-08-12T14:42:58.744Z,9.13
2022-08-12T14:45:45.482Z,9.57
2022-08-12T14:48:15.951Z,9.32
2022-08-12T14:51:03.307Z,9.57
2022-08-12T14:59:27.202Z,10.88
2022-08-12T15:02:21.336Z,10.43
2022-08-12T15:04:56.217Z,11.75
2022-08-12T15:07:34.205Z,11.70
2022-08-12T15:10:14.696Z,12.25
2022-08-12T15:12:52.738Z,12.05
2022-08-12T15:15:21.727Z,12.45
2022-08-12T15:17:59.054Z,11.32
2022-08-12T15:20:37.927Z,11.57
2022-08-12T15:23:18.067Z,12.52
2022-08-12T15:26:02.633Z,11.77
2022-08-12T15:28:37.166Z,10.45
2022-08-12T15:31:09.581Z,11.10
2022-08-12T15:33:58.031Z,11.18
2022-08-12T15:36:55.032Z,11.40
2022-08-12T15:39:16.554Z,11.75
2022-08-12T15:41:49.182Z,11.45
2022-08-12T15:44:42.097Z,11.20
2022-08-12T15:47:06.151Z,11.70
2022-08-12T15:49:43.076Z,11.73
2022-08-12T15:52:29.410Z,11.93
2022-08-12T15:55:06.002Z,11.07
2022-08-12T15:57:41.671Z,12.50
2022-08-12T16:00:29.014Z,11.77
2022-08-12T16:02:58.568Z,11.77
2022-08-12T16:06:11.458Z,12.00
2022-08-12T16:08:24.367Z,11.88
2022-08-12T16:10:56.807Z,12.23
2022-08-12T16:13:34.751Z,12.45
2022-08-12T16:16:12.454Z,13.18
2022-08-12T16:18:52.112Z,12.60
2022-08-12T16:21:52.718Z,12.10
2022-08-12T16:24:08.664Z,13.13
2022-08-12T16:26:40.745Z,12.77
2022-08-12T16:29:15.321Z,13.07
2022-08-12T16:31:44.787Z,12.15
2022-08-12T16:34:25.882Z,12.68
2022-08-12T16:37:07.538Z,14.05
2022-08-12T16:40:00.318Z,13.98
2022-08-12T16:42:28.468Z,13.60
2022-08-12T16:44:59.927Z,13.73
2022-08-12T16:47:31.454Z,13.57
2022-08-12T16:50:31.310Z,13.68
2022-08-12T16:53:02.299Z,13.25
2022-08-12T16:55:42.495Z,13.43
2022-08-12T16:58:27.867Z,13.45
2022-08-12T17:00:55.948Z,14.27
2022-08-12T17:03:28.930Z,14.95
2022-08-12T17:05:57.616Z,13.90
2022-08-12T17:08:30.235Z,14.10
2022-08-12T17:10:57.415Z,14.05
2022-08-12T17:13:26.371Z,14.13
2022-08-12T17:16:05.716Z,14.98
2022-08-12T17:18:43.002Z,13.82
2022-08-12T17:21:41.633Z,14.07
2022-08-12T17:24:15.337Z,14.02
2022-08-12T17:26:49.404Z,13.55
2022-08-12T17:29:24.341Z,13.45
2022-08-12T17:32:12.315Z,14.45
2022-08-12T17:34:58.663Z,14.18
2022-08-12T17:37:28.019Z,13.88
2022-08-12T17:40:15.016Z,13.32
2022-08-12T17:42:47.872Z,13.20
2022-08-12T17:45:21.475Z,13.20
2022-08-12T17:48:01.042Z,12.88
2022-08-12T17:50:34.265Z,13.05
2022-08-12T17:53:03.224Z,12.95
2022-08-12T17:55:44.763Z,13.02
2022-08-12T17:58:16.641Z,13.52
2022-08-12T18:00:50.681Z,13.73
2022-08-12T18:04:04.912Z,14.18
2022-08-12T18:06:13.969Z,13.18
2022-08-12T18:08:54.280Z,13.80
2022-08-12T18:12:06.519Z,14.10
2022-08-12T18:14:32.081Z,13.45
2022-08-12T18:17:01.216Z,14.27
2022-08-12T18:19:48.550Z,14.07
2022-08-12T18:22:30.775Z,14.85
2022-08-12T18:25:04.730Z,14.38
2022-08-12T18:27:44.224Z,14.40
2022-08-12T18:30:20.856Z,14.75
2022-08-12T18:33:05.220Z,15.07
2022-08-12T18:35:47.654Z,14.55
2022-08-12T18:38:22.678Z,14.13
2022-08-12T18:41:21.403Z,13.98
2022-08-12T18:44:07.848Z,13.23
2022-08-12T18:46:53.798Z,14.07
2022-08-12T18:49:33.343Z,14.65
2022-08-12T18:52:05.686Z,13.48
2022-08-12T18:54:52.950Z,13.48
2022-08-12T18:58:06.332Z,13.80
2022-08-12T19:00:25.262Z,13.13
2022-08-12T19:02:53.800Z,13.52
2022-08-12T19:05:23.560Z,13.68
2022-08-12T19:08:11.659Z,13.75
2022-08-12T19:10:49.948Z,13.48
2022-08-12T19:13:37.721Z,13.15
2022-08-12T19:16:11.355Z,12.82
2022-08-12T19:18:44.626Z,13.48
2022-08-12T19:21:17.047Z,13.57
2022-08-12T19:24:08.182Z,13.48
2022-08-12T19:26:36.725Z,13.25
2022-08-12T19:29:07.619Z,13.43
2022-08-12T19:31:55.603Z,13.05
2022-08-12T19:35:53.776Z,13.07
2022-08-12T19:38:02.584Z,12.70
2022-08-12T19:40:31.525Z,13.30
2022-08-12T19:43:20.023Z,12.80
2022-08-12T19:45:56.476Z,13.32
2022-08-12T19:48:30.407Z,13.75
2022-08-12T19:50:58.125Z,14.15
2022-08-12T19:53:27.431Z,14.43
2022-08-12T19:55:57.279Z,14.35
2022-08-12T19:58:28.294Z,15.30
2022-08-12T20:00:56.494Z,14.48
2022-08-12T20:03:40.375Z,15.35
2022-08-12T20:06:21.787Z,14.75
2022-08-12T20:08:55.879Z,14.65
2022-08-12T20:14:17.991Z,13.27
2022-08-12T20:16:52.830Z,12.88
2022-08-12T20:19:52.754Z,13.55
2022-08-12T20:22:24.495Z,14.02
2022-08-12T20:25:08.697Z,12.98
2022-08-12T20:28:02.894Z,13.10
2022-08-12T20:30:37.596Z,12.18
2022-08-12T20:33:18.368Z,12.88
2022-08-12T20:36:14.071Z,12.07
2022-08-12T20:38:38.337Z,12.73
2022-08-12T20:41:17.425Z,12.23
2022-08-12T20:43:52.208Z,12.32
2022-08-12T20:46:21.307Z,12.55
2022-08-12T20:48:55.334Z,12.50
2022-08-12T20:51:55.382Z,12.05
2022-08-12T20:54:16.572Z,12.25
2022-08-12T20:56:45.357Z,12.10
2022-08-12T20:59:20.144Z,12.57
2022-08-12T21:01:49.033Z,11.88
2022-08-12T21:04:36.971Z,11.80
2022-08-12T21:07:09.697Z,12.23
2022-08-12T21:09:40.814Z,12.32
2022-08-12T21:12:28.135Z,11.85
2022-08-12T21:15:23.327Z,11.80
2022-08-12T21:18:15.542Z,12.05
2022-08-12T21:20:52.501Z,11.93
2022-08-12T21:23:23.897Z,12.00
2022-08-12T21:25:56.129Z,12.85
2022-08-12T21:28:27.821Z,12.55
2022-08-12T21:32:34.847Z,13.02
2022-08-12T21:34:07.569Z,12.90
2022-08-12T21:36:49.450Z,12.65
2022-08-12T21:39:27.900Z,12.00
2022-08-12T21:42:06.621Z,12.63
2022-08-12T21:45:46.240Z,12.73
2022-08-12T21:47:23.558Z,13.57
2022-08-12T21:50:03.356Z,14.27
2022-08-12T21:52:34.980Z,14.90
2022-08-12T21:55:08.372Z,14.45
2022-08-12T21:58:02.630Z,14.75
2022-08-12T22:00:34.223Z,12.00
2022-08-12T22:04:01.531Z,11.73
2022-08-12T22:06:31.481Z,12.10
2022-08-12T22:09:16.670Z,12.27
2022-08-12T22:11:56.678Z,11.65
2022-08-12T22:14:30.327Z,11.65
2022-08-12T22:16:58.694Z,10.50
2022-08-12T22:19:27.692Z,10.77
2022-08-12T22:21:58.310Z,10.07
2022-08-12T22:24:29.893Z,10.60
2022-08-12T22:26:59.644Z,9.60
2022-08-12T22:30:04.019Z,10.70
2022-08-12T22:32:31.033Z,9.90
2022-08-12T22:35:22.413Z,10.68
2022-08-12T22:37:53.643Z,10.90
2022-08-12T22:40:22.856Z,9.90
2022-08-12T22:43:19.993Z,10.52
2022-08-12T22:46:10.142Z,9.50
2022-08-12T22:48:37.159Z,9.73
2022-08-12T22:51:19.450Z,9.88
2022-08-12T22:53:49.347Z,10.40
2022-08-12T22:56:19.044Z,10.18
2022-08-12T22:58:47.308Z,9.85
2022-08-12T23:01:50.171Z,10.32
2022-08-12T23:04:02.948Z,9.60
2022-08-12T23:06:30.021Z,10.45
2022-08-12T23:08:57.019Z,9.93
2022-08-12T23:11:25.391Z,11.10
2022-08-12T23:14:03.477Z,11.07
2022-08-12T23:16:34.182Z,10.63
2022-08-12T23:19:11.035Z,9.70
2022-08-12T23:22:06.603Z,11.73
2022-08-12T23:24:54.103Z,10.52
2022-08-12T23:27:51.851Z,9.93
2022-08-12T23:30:32.444Z,10.90
2022-08-12T23:33:19.766Z,10.57
2022-08-12T23:36:02.600Z,10.40
2022-08-12T23:38:32.228Z,10.88
2022-08-12T23:41:02.038Z,11.20
2022-08-12T23:43:39.076Z,11.40
2022-08-12T23:46:18.693Z,12.13
2022-08-12T23:48:47.925Z,11.68
2022-08-12T23:51:22.793Z,12.18
2022-08-12T23:54:00.064Z,12.80
2022-08-12T23:56:33.526Z,13.00
2022-08-12T23:59:05.976Z,12.93
